Time;durP1;ratioP1;P1;durP2;ratioP2;P2;SDS_P1;SDS_P2;PMS_P1;PMS_P2;Temp;Humidity;BMP_temperature;BMP_pressure;BME280_temperature;BME280_humidity;BME280_pressure;Samples;Min_cycle;Max_cycle;Signal;HPM_P1;HPM_P2
2024/02/01 00:01:57;;;;;;;;;12.00;12.00;;;;;;;;5070550;28;9822;-82
2024/02/01 00:04:24;;;;;;;;;12.50;10.75;;;;;;;;5071528;28;10116;-82
2024/02/01 00:06:52;;;;;;;;;10.75;10.75;;;;;;;;5069090;28;9939;-81
2024/02/01 00:09:20;;;;;;;;;15.00;11.00;;;;;;;;5062937;28;9895;-81
2024/02/01 00:11:48;;;;;;;;;15.00;12.50;;;;;;;;5069276;28;10079;-81
2024/02/01 00:14:15;;;;;;;;;12.25;12.25;;;;;;;;5070721;28;9856;-82
2024/02/01 00:16:42;;;;;;;;;15.00;14.00;;;;;;;;5071200;28;10029;-81
2024/02/01 00:19:09;;;;;;;;;11.50;11.50;;;;;;;;5071226;28;10263;-82
2024/02/01 00:21:36;;;;;;;;;12.25;12.25;;;;;;;;5071781;28;10021;-81
2024/02/01 00:24:04;;;;;;;;;10.00;10.00;;;;;;;;5066948;28;10135;-82
2024/02/01 00:26:35;;;;;;;;;11.25;11.25;;;;;;;;5067601;28;10091;-81
2024/02/01 00:29:02;;;;;;;;;15.25;15.25;;;;;;;;5067874;28;10197;-81
2024/02/01 00:31:30;;;;;;;;;10.00;10.00;;;;;;;;5058214;28;11702;-81
2024/02/01 00:33:57;;;;;;;;;13.50;13.50;;;;;;;;5070428;28;10139;-80
2024/02/01 00:36:24;;;;;;;;;14.00;14.00;;;;;;;;5070851;28;10285;-81
2024/02/01 00:38:51;;;;;;;;;13.25;13.25;;;;;;;;5070642;28;10180;-81
2024/02/01 00:41:19;;;;;;;;;11.25;10.50;;;;;;;;5069998;28;10020;-81
2024/02/01 00:43:47;;;;;;;;;14.75;13.00;;;;;;;;5070252;28;10092;-81
2024/02/01 00:46:16;;;;;;;;;13.00;13.00;;;;;;;;5063597;28;10941;-82
2024/02/01 00:48:43;;;;;;;;;11.50;9.50;;;;;;;;5065949;28;10015;-81
2024/02/01 00:51:11;;;;;;;;;8.75;8.75;;;;;;;;5072200;28;10059;-81
2024/02/01 00:53:38;;;;;;;;;8.25;8.25;;;;;;;;5071969;28;9923;-81
2024/02/01 00:56:05;;;;;;;;;10.25;10.25;;;;;;;;5075018;28;9947;-81
2024/02/01 00:58:33;;;;;;;;;9.00;9.00;;;;;;;;5074192;28;9947;-80
2024/02/01 01:01:02;;;;;;;;;9.25;9.25;;;;;;;;5075371;28;10012;-81
2024/02/01 01:03:29;;;;;;;;;14.00;12.75;;;;;;;;5074707;28;9938;-81
2024/02/01 01:05:56;;;;;;;;;9.25;9.25;;;;;;;;5075598;28;10217;-82
2024/02/01 01:08:24;;;;;;;;;11.25;11.25;;;;;;;;5071509;28;10018;-81
2024/02/01 01:10:51;;;;;;;;;10.50;10.50;;;;;;;;5071006;28;10863;-78
2024/02/01 01:13:18;;;;;;;;;7.50;6.50;;;;;;;;5070632;28;10026;-80
2024/02/01 01:15:45;;;;;;;;;10.25;10.25;;;;;;;;5072374;28;9935;-80
2024/02/01 01:18:14;;;;;;;;;10.00;10.00;;;;;;;;5072392;28;9930;-80
2024/02/01 01:20:41;;;;;;;;;12.75;12.75;;;;;;;;5069160;28;9855;-80
2024/02/01 01:23:08;;;;;;;;;14.75;12.00;;;;;;;;5067792;28;9968;-81
2024/02/01 01:25:36;;;;;;;;;10.75;10.50;;;;;;;;5068041;28;10134;-80
2024/02/01 01:28:03;;;;;;;;;12.25;10.75;;;;;;;;5068660;28;9847;-81
2024/02/01 01:30:30;;;;;;;;;9.75;9.75;;;;;;;;5057139;28;9901;-80
2024/02/01 01:32:57;;;;;;;;;8.00;8.00;;;;;;;;5056796;28;9969;-82
2024/02/01 01:35:26;;;;;;;;;9.00;9.00;;;;;;;;5067592;28;10497;-80
2024/02/01 01:37:53;;;;;;;;;15.25;12.75;;;;;;;;5064491;28;9714;-81
2024/02/01 01:40:20;;;;;;;;;9.25;7.75;;;;;;;;5059325;28;9881;-81
2024/02/01 01:42:48;;;;;;;;;12.00;11.00;;;;;;;;5067103;28;10546;-81
2024/02/01 01:45:16;;;;;;;;;11.75;11.00;;;;;;;;5067289;28;9786;-80
2024/02/01 01:47:44;;;;;;;;;10.75;10.75;;;;;;;;5068531;28;9782;-81
2024/02/01 01:50:14;;;;;;;;;13.25;11.50;;;;;;;;5068717;28;9692;-80
2024/02/01 01:52:45;;;;;;;;;11.00;11.00;;;;;;;;5068574;28;9958;-82
2024/02/01 01:55:13;;;;;;;;;12.50;12.50;;;;;;;;5068667;28;10117;-80
2024/02/01 01:57:41;;;;;;;;;8.00;7.75;;;;;;;;5067693;28;9877;-81
2024/02/01 02:00:10;;;;;;;;;8.75;8.75;;;;;;;;5067223;28;9938;-80
2024/02/01 02:02:40;;;;;;;;;1.00;1.00;;;;;;;;5067747;28;10047;-81
2024/02/01 02:05:08;;;;;;;;;12.00;9.25;;;;;;;;5054566;28;9850;-80
2024/02/01 02:07:35;;;;;;;;;10.75;10.50;;;;;;;;5068170;28;10035;-81
2024/02/01 02:10:05;;;;;;;;;8.00;8.00;;;;;;;;5068065;28;9863;-80
2024/02/01 02:12:32;;;;;;;;;11.25;8.75;;;;;;;;5068041;28;9906;-80
2024/02/01 02:15:00;;;;;;;;;12.25;10.00;;;;;;;;5067361;28;9698;-80
2024/02/01 02:17:28;;;;;;;;;7.00;7.00;;;;;;;;5068076;28;9798;-80
2024/02/01 02:19:55;;;;;;;;;10.00;10.00;;;;;;;;5067912;28;9910;-80
2024/02/01 02:22:24;;;;;;;;;12.00;10.25;;;;;;;;5068773;28;9821;-80
2024/02/01 02:24:52;;;;;;;;;8.50;8.50;;;;;;;;5070922;28;9827;-79
2024/02/01 02:27:20;;;;;;;;;11.50;11.50;;;;;;;;5089089;28;9738;-78
2024/02/01 02:29:47;;;;;;;;;9.25;9.25;;;;;;;;5075605;28;9863;-80
2024/02/01 02:32:15;;;;;;;;;11.75;11.75;;;;;;;;5068478;28;9818;-81
2024/02/01 02:34:42;;;;;;;;;12.00;11.75;;;;;;;;5066274;28;9775;-80
2024/02/01 02:37:09;;;;;;;;;11.00;11.00;;;;;;;;5068761;28;9884;-81
2024/02/01 02:39:41;;;;;;;;;12.50;12.50;;;;;;;;5059232;28;9868;-81
2024/02/01 02:42:08;;;;;;;;;8.50;6.75;;;;;;;;5070261;28;9853;-80
2024/02/01 02:44:35;;;;;;;;;12.25;11.00;;;;;;;;5071953;28;9704;-80
2024/02/01 02:47:03;;;;;;;;;13.00;13.00;;;;;;;;5072161;28;9923;-80
2024/02/01 02:49:32;;;;;;;;;11.00;11.00;;;;;;;;5061981;28;9765;-81
2024/02/01 02:51:59;;;;;;;;;6.00;5.50;;;;;;;;5073266;28;9782;-81
2024/02/01 02:54:27;;;;;;;;;9.00;8.00;;;;;;;;5072673;28;9735;-81
2024/02/01 02:56:55;;;;;;;;;14.25;9.25;;;;;;;;5025352;28;1162086;-81
2024/02/01 02:59:23;;;;;;;;;15.75;12.50;;;;;;;;5073633;28;8853;-81
2024/02/01 03:01:50;;;;;;;;;11.75;9.75;;;;;;;;5071002;28;9649;-79
2024/02/01 03:04:17;;;;;;;;;12.00;12.00;;;;;;;;5073400;28;9724;-81
2024/02/01 03:06:44;;;;;;;;;13.50;11.75;;;;;;;;5068878;28;9760;-79
2024/02/01 03:09:16;;;;;;;;;13.00;12.00;;;;;;;;5066259;28;9805;-79
2024/02/01 03:11:44;;;;;;;;;9.50;7.25;;;;;;;;5067367;28;9867;-81
2024/02/01 03:14:12;;;;;;;;;12.00;12.00;;;;;;;;5068249;28;9889;-81
2024/02/01 03:16:40;;;;;;;;;11.00;11.00;;;;;;;;5067726;28;9749;-81
2024/02/01 03:19:11;;;;;;;;;12.00;12.00;;;;;;;;5068381;28;9886;-82
2024/02/01 03:21:39;;;;;;;;;15.75;13.50;;;;;;;;5066577;28;9930;-81
2024/02/01 03:24:06;;;;;;;;;12.75;11.25;;;;;;;;5068171;28;10158;-82
2024/02/01 03:26:35;;;;;;;;;10.75;10.75;;;;;;;;5065023;28;10085;-82
2024/02/01 03:29:04;;;;;;;;;11.75;11.00;;;;;;;;5067329;28;9951;-81
2024/02/01 03:31:34;;;;;;;;;12.25;11.00;;;;;;;;5067403;28;9891;-82
2024/02/01 03:34:05;;;;;;;;;11.00;11.00;;;;;;;;5065314;28;10788;-81
2024/02/01 03:36:34;;;;;;;;;12.00;12.00;;;;;;;;5065057;28;10101;-81
2024/02/01 03:39:02;;;;;;;;;15.75;14.00;;;;;;;;5052884;28;10046;-81
2024/02/01 03:41:29;;;;;;;;;14.75;12.00;;;;;;;;5067926;28;10025;-81
2024/02/01 03:43:57;;;;;;;;;14.00;14.00;;;;;;;;5067703;28;10155;-81
2024/02/01 03:46:26;;;;;;;;;13.25;12.50;;;;;;;;5067851;28;10060;-82
2024/02/01 03:48:55;;;;;;;;;11.75;11.75;;;;;;;;5066316;28;9911;-82
2024/02/01 03:51:23;;;;;;;;;12.50;12.50;;;;;;;;5068087;28;10040;-82
2024/02/01 03:53:51;;;;;;;;;18.75;14.75;;;;;;;;5067945;28;10887;-82
2024/02/01 03:56:23;;;;;;;;;14.50;12.00;;;;;;;;5070976;28;10040;-80
2024/02/01 03:58:50;;;;;;;;;14.00;14.00;;;;;;;;5071267;28;9864;-82
2024/02/01 04:01:18;;;;;;;;;12.75;12.75;;;;;;;;5059808;28;10033;-81
2024/02/01 04:03:45;;;;;;;;;12.75;12.50;;;;;;;;5064726;28;10111;-81
2024/02/01 04:06:13;;;;;;;;;14.25;14.25;;;;;;;;5063318;28;10200;-81
2024/02/01 04:08:42;;;;;;;;;17.75;14.00;;;;;;;;5071169;28;10224;-81
2024/02/01 04:11:11;;;;;;;;;17.50;15.00;;;;;;;;5071448;28;10102;-82
2024/02/01 04:13:45;;;;;;;;;16.25;13.75;;;;;;;;5071050;28;10083;-80
2024/02/01 04:16:12;;;;;;;;;15.25;15.25;;;;;;;;5070243;28;10995;-80
2024/02/01 04:18:40;;;;;;;;;14.75;12.50;;;;;;;;5070881;28;10049;-80
2024/02/01 04:21:10;;;;;;;;;14.25;14.25;;;;;;;;5071666;28;10150;-81
2024/02/01 04:23:41;;;;;;;;;17.50;15.75;;;;;;;;5065714;28;10188;-80
2024/02/01 04:26:14;;;;;;;;;14.00;13.50;;;;;;;;5055986;28;10027;-80
2024/02/01 04:28:42;;;;;;;;;13.75;13.75;;;;;;;;5076130;28;10066;-80
2024/02/01 04:31:09;;;;;;;;;13.50;13.50;;;;;;;;5076579;28;10047;-78
2024/02/01 04:33:40;;;;;;;;;16.00;14.50;;;;;;;;5077261;28;10221;-80
2024/02/01 04:36:08;;;;;;;;;15.25;15.25;;;;;;;;5077165;28;10131;-80
2024/02/01 04:38:37;;;;;;;;;15.25;13.50;;;;;;;;5077515;28;10241;-79
2024/02/01 04:41:06;;;;;;;;;16.00;14.50;;;;;;;;5075039;28;10062;-80
2024/02/01 04:43:33;;;;;;;;;17.75;14.00;;;;;;;;5071458;28;10194;-80
2024/02/01 04:46:01;;;;;;;;;16.00;14.00;;;;;;;;5071130;28;10044;-80
2024/02/01 04:48:28;;;;;;;;;14.00;14.00;;;;;;;;5071400;28;10046;-79
2024/02/01 04:50:55;;;;;;;;;15.25;13.50;;;;;;;;5071852;28;10665;-80
2024/02/01 04:53:22;;;;;;;;;19.50;19.50;;;;;;;;5072531;28;10203;-79
2024/02/01 04:55:50;;;;;;;;;15.00;15.00;;;;;;;;5068210;28;10440;-80
2024/02/01 04:58:19;;;;;;;;;13.00;13.00;;;;;;;;5070582;28;10217;-79
2024/02/01 05:00:47;;;;;;;;;14.50;13.50;;;;;;;;5071267;28;10110;-78
2024/02/01 05:03:15;;;;;;;;;13.25;13.25;;;;;;;;5082835;28;10230;-78
2024/02/01 05:05:45;;;;;;;;;12.00;12.00;;;;;;;;5071469;28;10261;-78
2024/02/01 05:08:13;;;;;;;;;16.50;14.50;;;;;;;;5068488;28;10344;-81
2024/02/01 05:10:44;;;;;;;;;13.50;13.50;;;;;;;;5068175;28;10343;-80
2024/02/01 05:13:13;;;;;;;;;15.00;13.75;;;;;;;;5070814;28;10245;-83
2024/02/01 05:15:42;;;;;;;;;20.00;19.50;;;;;;;;5059062;28;10913;-82
2024/02/01 05:18:10;;;;;;;;;20.25;20.25;;;;;;;;5069577;28;10087;-82
2024/02/01 05:20:38;;;;;;;;;14.75;14.00;;;;;;;;5069712;28;10103;-82
2024/02/01 05:23:07;;;;;;;;;15.00;13.00;;;;;;;;5066296;28;10146;-82
2024/02/01 05:25:34;;;;;;;;;19.00;16.00;;;;;;;;5064668;28;11218;-82
2024/02/01 05:28:04;;;;;;;;;15.00;15.00;;;;;;;;5064228;28;10227;-82
2024/02/01 05:30:36;;;;;;;;;20.75;17.00;;;;;;;;5069157;28;10862;-82
2024/02/01 05:33:07;;;;;;;;;14.50;14.50;;;;;;;;5068870;28;10218;-83
2024/02/01 05:35:34;;;;;;;;;16.00;16.00;;;;;;;;5073631;28;10188;-83
2024/02/01 05:38:05;;;;;;;;;17.00;14.00;;;;;;;;5064017;28;10379;-82
2024/02/01 05:40:33;;;;;;;;;19.75;17.00;;;;;;;;5064949;28;10185;-82
2024/02/01 05:43:01;;;;;;;;;15.00;15.00;;;;;;;;5069425;28;10264;-83
2024/02/01 05:45:29;;;;;;;;;16.75;15.00;;;;;;;;5068074;28;10136;-82
2024/02/01 05:47:58;;;;;;;;;16.25;16.25;;;;;;;;5068501;28;10241;-82
2024/02/01 05:50:27;;;;;;;;;18.00;16.75;;;;;;;;5067274;28;10292;-82
2024/02/01 05:52:55;;;;;;;;;14.00;14.00;;;;;;;;5068815;28;10226;-82
2024/02/01 05:55:25;;;;;;;;;17.25;13.75;;;;;;;;5068088;28;10143;-82
2024/02/01 05:57:52;;;;;;;;;16.25;16.25;;;;;;;;5068551;28;10173;-82
2024/02/01 06:00:24;;;;;;;;;17.75;13.75;;;;;;;;5067950;28;10120;-83
2024/02/01 06:02:55;;;;;;;;;19.75;18.00;;;;;;;;5068913;28;10088;-83
2024/02/01 06:05:26;;;;;;;;;18.50;17.00;;;;;;;;5068838;28;9995;-83
2024/02/01 06:07:54;;;;;;;;;13.50;13.50;;;;;;;;5069106;28;10249;-81
2024/02/01 06:10:21;;;;;;;;;20.00;18.00;;;;;;;;5068432;28;10048;-76
2024/02/01 06:12:48;;;;;;;;;15.00;15.00;;;;;;;;5069261;28;10456;-78
2024/02/01 06:15:15;;;;;;;;;20.00;19.50;;;;;;;;5065763;28;10043;-79
2024/02/01 06:17:43;;;;;;;;;20.25;19.00;;;;;;;;5064313;28;10068;-78
2024/02/01 06:20:12;;;;;;;;;17.75;16.25;;;;;;;;5071713;28;10111;-76
2024/02/01 06:22:43;;;;;;;;;22.00;18.25;;;;;;;;5071676;28;10070;-75
2024/02/01 06:25:13;;;;;;;;;16.75;16.00;;;;;;;;5072244;28;10103;-76
2024/02/01 06:27:43;;;;;;;;;20.00;20.00;;;;;;;;5070948;28;10385;-78
2024/02/01 06:30:12;;;;;;;;;20.50;18.50;;;;;;;;5061137;28;10384;-76
2024/02/01 06:32:41;;;;;;;;;16.75;15.25;;;;;;;;5068441;28;10381;-75
2024/02/01 06:35:16;;;;;;;;;20.75;19.75;;;;;;;;5066663;28;10256;-74
2024/02/01 06:37:51;;;;;;;;;24.75;24.75;;;;;;;;5066375;28;10414;-74
2024/02/01 06:40:37;;;;;;;;;19.50;19.25;;;;;;;;5067997;28;10353;-74
2024/02/01 06:43:11;;;;;;;;;23.00;23.00;;;;;;;;5068294;28;10332;-74
2024/02/01 06:45:45;;;;;;;;;26.00;22.25;;;;;;;;5067582;28;10263;-73
2024/02/01 06:48:12;;;;;;;;;17.50;16.50;;;;;;;;5067683;28;10279;-73
2024/02/01 06:50:57;;;;;;;;;22.00;21.25;;;;;;;;5067154;28;10326;-75
2024/02/01 06:53:33;;;;;;;;;21.00;19.75;;;;;;;;5066912;28;10502;-76
2024/02/01 06:56:06;;;;;;;;;19.00;19.00;;;;;;;;5066964;28;10754;-74
2024/02/01 06:58:47;;;;;;;;;19.50;18.50;;;;;;;;5066997;28;10390;-74
2024/02/01 07:01:23;;;;;;;;;21.50;21.50;;;;;;;;5067168;28;10219;-75
2024/02/01 07:04:07;;;;;;;;;19.50;19.50;;;;;;;;5066798;28;10359;-75
2024/02/01 07:06:35;;;;;;;;;25.25;21.75;;;;;;;;5067691;28;10189;-74
2024/02/01 07:12:09;;;;;;;;;21.75;19.75;;;;;;;;4985547;28;10383;-75
2024/02/01 07:14:39;;;;;;;;;24.50;21.00;;;;;;;;5049215;28;10500;-76
2024/02/01 07:20:03;;;;;;;;;20.25;19.25;;;;;;;;5052693;28;10295;-75
2024/02/01 07:22:38;;;;;;;;;21.00;19.25;;;;;;;;5066929;28;10901;-73
2024/02/01 07:25:33;;;;;;;;;24.75;20.50;;;;;;;;5065368;28;10258;-74
2024/02/01 07:58:16;;;;;;;;;29.00;26.50;;;;;;;;5071191;28;10559;-77
2024/02/01 08:00:48;;;;;;;;;32.25;29.00;;;;;;;;5068664;28;10606;-77
2024/02/01 08:03:55;;;;;;;;;25.50;25.50;;;;;;;;5070366;28;10595;-76
2024/02/01 08:09:11;;;;;;;;;31.00;26.00;;;;;;;;5074185;28;10404;-75
2024/02/01 08:11:41;;;;;;;;;27.00;23.50;;;;;;;;5075793;28;10409;-75
2024/02/01 08:14:10;;;;;;;;;27.50;25.50;;;;;;;;5075604;28;10373;-80
2024/02/01 08:16:39;;;;;;;;;24.00;24.00;;;;;;;;5074851;28;10434;-78
2024/02/01 08:19:07;;;;;;;;;26.75;23.75;;;;;;;;5074686;28;10380;-75
2024/02/01 08:21:37;;;;;;;;;18.75;18.75;;;;;;;;5074056;28;10427;-75
2024/02/01 08:24:06;;;;;;;;;20.75;20.75;;;;;;;;5070404;28;10562;-74
2024/02/01 08:26:37;;;;;;;;;27.50;23.75;;;;;;;;5070681;28;10242;-73
2024/02/01 08:29:06;;;;;;;;;23.25;23.25;;;;;;;;5069622;28;10298;-74
2024/02/01 08:31:37;;;;;;;;;28.50;27.25;;;;;;;;5069493;28;10186;-75
2024/02/01 08:34:07;;;;;;;;;26.75;25.00;;;;;;;;5066714;28;10195;-77
2024/02/01 08:36:34;;;;;;;;;22.50;22.50;;;;;;;;5058803;28;10426;-75
2024/02/01 08:39:01;;;;;;;;;22.50;17.50;;;;;;;;5055812;28;10199;-73
2024/02/01 08:41:35;;;;;;;;;18.25;18.00;;;;;;;;5067873;28;10874;-74
2024/02/01 08:44:03;;;;;;;;;18.25;18.00;;;;;;;;5068885;28;10107;-74
2024/02/01 08:46:30;;;;;;;;;14.00;14.00;;;;;;;;5069560;28;10096;-76
2024/02/01 08:48:58;;;;;;;;;17.75;17.00;;;;;;;;5069700;28;9911;-75
2024/02/01 08:51:26;;;;;;;;;14.00;13.25;;;;;;;;5069215;28;9943;-74
2024/02/01 08:53:53;;;;;;;;;17.50;16.50;;;;;;;;5068987;28;10040;-77
2024/02/01 08:56:21;;;;;;;;;17.25;17.25;;;;;;;;5069223;28;9807;-74
2024/02/01 08:58:48;;;;;;;;;21.50;18.50;;;;;;;;5069357;28;9848;-75
2024/02/01 09:01:22;;;;;;;;;23.50;20.50;;;;;;;;5069462;28;10655;-74
2024/02/01 09:03:50;;;;;;;;;13.50;13.50;;;;;;;;5068476;28;10089;-73
2024/02/01 09:06:19;;;;;;;;;18.75;18.75;;;;;;;;5069375;28;9864;-76
2024/02/01 09:08:46;;;;;;;;;17.75;17.75;;;;;;;;5066159;28;10766;-73
2024/02/01 09:11:15;;;;;;;;;12.50;12.50;;;;;;;;5069391;28;9991;-75
2024/02/01 09:13:44;;;;;;;;;20.50;20.50;;;;;;;;5068062;28;9857;-73
2024/02/01 09:16:12;;;;;;;;;19.75;16.75;;;;;;;;5068679;28;9948;-77
2024/02/01 09:18:39;;;;;;;;;20.00;20.00;;;;;;;;5068711;28;9707;-76
2024/02/01 09:21:07;;;;;;;;;23.25;21.25;;;;;;;;5068898;28;9791;-77
2024/02/01 09:23:38;;;;;;;;;17.75;14.50;;;;;;;;5066695;28;9922;-74
2024/02/01 09:26:08;;;;;;;;;18.25;16.75;;;;;;;;5068112;28;9950;-73
2024/02/01 09:28:38;;;;;;;;;17.25;17.25;;;;;;;;5066733;28;9808;-75
2024/02/01 09:31:18;;;;;;;;;22.25;21.50;;;;;;;;5063743;28;9726;-75
2024/02/01 09:33:45;;;;;;;;;22.75;20.00;;;;;;;;5067917;28;10108;-77
2024/02/01 09:36:13;;;;;;;;;17.00;16.00;;;;;;;;5065825;28;9876;-75
2024/02/01 09:38:42;;;;;;;;;19.00;17.00;;;;;;;;5069215;28;9619;-74
2024/02/01 09:41:15;;;;;;;;;18.00;15.50;;;;;;;;5067410;28;10031;-76
2024/02/01 09:43:44;;;;;;;;;19.25;19.25;;;;;;;;5068726;28;9636;-73
2024/02/01 09:46:12;;;;;;;;;14.67;14.67;;;;;;;;5068219;28;9505;-75
2024/02/01 09:48:41;;;;;;;;;10.67;10.67;;;;;;;;5069657;28;9398;-77
2024/02/01 09:51:17;;;;;;;;;16.33;16.00;;;;;;;;5058424;28;10230;-80
2024/02/01 09:53:47;;;;;;;;;17.00;15.33;;;;;;;;5070967;28;9492;-81
2024/02/01 09:56:14;;;;;;;;;10.67;9.00;;;;;;;;5074039;28;9532;-77
2024/02/01 09:58:42;;;;;;;;;12.67;10.00;;;;;;;;5075410;28;9144;-76
2024/02/01 10:01:10;;;;;;;;;10.33;10.33;;;;;;;;5075614;28;9029;-79
2024/02/01 10:03:42;;;;;;;;;9.67;8.00;;;;;;;;5073674;28;9186;-77
2024/02/01 10:06:09;;;;;;;;;8.00;8.00;;;;;;;;5075246;28;9188;-79
2024/02/01 10:08:38;;;;;;;;;4.75;4.75;;;;;;;;5073748;28;8962;-75
2024/02/01 10:11:08;;;;;;;;;5.00;5.00;;;;;;;;5073020;28;8998;-73
2024/02/01 10:13:36;;;;;;;;;4.25;4.25;;;;;;;;5075987;28;8878;-72
2024/02/01 10:16:12;;;;;;;;;5.00;5.00;;;;;;;;5076174;28;8914;-75
2024/02/01 10:18:43;;;;;;;;;15.33;14.00;;;;;;;;5068410;28;8863;-74
2024/02/01 10:21:22;;;;;;;;;2.00;2.00;;;;;;;;5074100;28;9033;-74
2024/02/01 10:23:50;;;;;;;;;6.00;6.00;;;;;;;;5067236;28;8832;-77
2024/02/01 10:26:25;;;;;;;;;3.25;3.25;;;;;;;;5067088;28;8862;-79
2024/02/01 10:28:52;;;;;;;;;5.25;4.25;;;;;;;;5068053;28;8941;-77
2024/02/01 10:31:21;;;;;;;;;3.00;3.00;;;;;;;;5069502;28;8805;-72
2024/02/01 10:33:49;;;;;;;;;3.25;3.25;;;;;;;;5059864;28;8860;-73
2024/02/01 10:36:20;;;;;;;;;4.00;4.00;;;;;;;;5067750;28;8843;-76
2024/02/01 10:38:53;;;;;;;;;5.00;4.75;;;;;;;;5056129;28;8977;-72
2024/02/01 10:41:28;;;;;;;;;5.00;5.00;;;;;;;;5066290;28;8848;-71
2024/02/01 10:43:57;;;;;;;;;8.25;6.50;;;;;;;;5069148;28;8872;-81
2024/02/01 10:46:28;;;;;;;;;5.75;5.75;;;;;;;;5070885;28;8955;-74
2024/02/01 10:49:02;;;;;;;;;5.67;5.67;;;;;;;;5066974;28;8843;-78
2024/02/01 10:51:31;;;;;;;;;5.25;5.25;;;;;;;;5067091;28;8882;-73
2024/02/01 10:54:01;;;;;;;;;15.67;10.67;;;;;;;;5066783;28;8874;-78
2024/02/01 10:56:30;;;;;;;;;15.00;7.67;;;;;;;;5067774;28;9309;-77
2024/02/01 10:59:06;;;;;;;;;9.00;9.00;;;;;;;;5067117;28;9163;-75
2024/02/01 11:01:34;;;;;;;;;10.67;9.00;;;;;;;;5067238;28;9377;-78
2024/02/01 11:04:05;;;;;;;;;7.33;6.00;;;;;;;;5068501;28;9622;-74
2024/02/01 11:06:33;;;;;;;;;8.00;8.00;;;;;;;;5071647;28;9486;-76
2024/02/01 11:09:18;;;;;;;;;12.00;7.00;;;;;;;;5058209;28;9532;-78
2024/02/01 11:11:49;;;;;;;;;10.00;7.50;;;;;;;;5071517;28;9456;-79
2024/02/01 11:14:22;;;;;;;;;5.75;5.75;;;;;;;;5072103;28;9557;-76
2024/02/01 11:16:52;;;;;;;;;5.00;5.00;;;;;;;;5069675;28;9535;-75
2024/02/01 11:19:22;;;;;;;;;9.75;9.75;;;;;;;;5070889;28;9614;-76
2024/02/01 11:21:51;;;;;;;;;8.25;6.00;;;;;;;;5070580;28;9541;-76
2024/02/01 11:24:24;;;;;;;;;4.75;4.00;;;;;;;;5070977;28;9470;-75
2024/02/01 11:26:55;;;;;;;;;6.00;4.75;;;;;;;;5041799;28;10407;-75
2024/02/01 11:29:24;;;;;;;;;4.50;4.50;;;;;;;;5068646;28;9535;-73
2024/02/01 11:31:56;;;;;;;;;4.25;4.25;;;;;;;;5072815;28;9510;-74
2024/02/01 11:34:24;;;;;;;;;4.50;4.00;;;;;;;;5070546;28;9565;-77
2024/02/01 11:36:51;;;;;;;;;3.25;3.25;;;;;;;;5070795;28;9453;-73
2024/02/01 11:39:19;;;;;;;;;3.25;3.25;;;;;;;;5058588;28;9474;-74
2024/02/01 11:41:47;;;;;;;;;9.25;6.50;;;;;;;;5071684;28;9475;-75
2024/02/01 11:44:18;;;;;;;;;4.00;3.67;;;;;;;;5073176;28;9490;-77
2024/02/01 11:46:46;;;;;;;;;2.67;2.67;;;;;;;;5073182;28;9319;-78
2024/02/01 11:49:17;;;;;;;;;3.33;3.00;;;;;;;;5075045;28;9344;-76
2024/02/01 11:51:46;;;;;;;;;2.00;2.00;;;;;;;;5076485;28;9349;-76
2024/02/01 11:54:13;;;;;;;;;2.67;2.00;;;;;;;;5072031;28;9416;-78
2024/02/01 11:56:43;;;;;;;;;2.33;1.00;;;;;;;;5071343;28;9246;-79
2024/02/01 11:59:11;;;;;;;;;4.00;4.00;;;;;;;;5071739;28;9279;-76
2024/02/01 12:01:45;;;;;;;;;2.00;2.00;;;;;;;;5070109;28;9199;-74
2024/02/01 12:04:12;;;;;;;;;1.00;1.00;;;;;;;;5059746;28;9099;-73
2024/02/01 12:06:43;;;;;;;;;2.00;2.00;;;;;;;;5068799;28;9100;-77
2024/02/01 12:09:14;;;;;;;;;3.00;3.00;;;;;;;;5071415;28;9163;-74
2024/02/01 12:11:46;;;;;;;;;4.00;2.00;;;;;;;;5068620;28;9018;-73
2024/02/01 12:14:17;;;;;;;;;5.00;3.33;;;;;;;;5070544;28;9111;-73
2024/02/01 12:16:49;;;;;;;;;3.00;3.00;;;;;;;;5069487;28;9107;-74
2024/02/01 12:19:18;;;;;;;;;5.67;4.00;;;;;;;;5070218;28;8868;-74
2024/02/01 12:21:51;;;;;;;;;4.33;4.33;;;;;;;;5066632;28;9085;-75
2024/02/01 12:24:18;;;;;;;;;4.00;4.00;;;;;;;;5069848;28;8942;-74
2024/02/01 12:26:46;;;;;;;;;4.00;4.00;;;;;;;;5068899;28;9022;-72
2024/02/01 12:29:13;;;;;;;;;4.00;4.00;;;;;;;;5070103;28;9075;-73
2024/02/01 12:31:40;;;;;;;;;3.00;3.00;;;;;;;;5070601;28;8958;-73
2024/02/01 12:34:13;;;;;;;;;3.00;3.00;;;;;;;;5070618;28;8951;-75
2024/02/01 12:36:43;;;;;;;;;3.67;3.67;;;;;;;;5073035;28;9007;-75
2024/02/01 12:39:14;;;;;;;;;3.67;3.00;;;;;;;;5055006;28;8930;-73
2024/02/01 12:41:41;;;;;;;;;7.00;5.67;;;;;;;;5069800;28;8957;-74
2024/02/01 12:44:09;;;;;;;;;7.00;5.00;;;;;;;;5068986;28;9029;-74
2024/02/01 12:46:38;;;;;;;;;3.33;3.33;;;;;;;;5070154;28;9013;-73
2024/02/01 12:49:05;;;;;;;;;4.67;3.00;;;;;;;;5070728;28;8946;-73
2024/02/01 12:51:33;;;;;;;;;3.25;3.25;;;;;;;;5069414;28;8943;-73
2024/02/01 12:54:01;;;;;;;;;3.00;3.00;;;;;;;;5068715;28;9657;-73
2024/02/01 12:56:32;;;;;;;;;3.25;2.25;;;;;;;;5069151;28;8938;-72
2024/02/01 12:59:01;;;;;;;;;6.75;2.75;;;;;;;;5069099;28;8874;-75
2024/02/01 13:01:29;;;;;;;;;3.25;3.00;;;;;;;;5068453;28;8943;-74
2024/02/01 13:03:56;;;;;;;;;2.00;2.00;;;;;;;;5067123;28;8917;-75
2024/02/01 13:06:24;;;;;;;;;3.25;3.00;;;;;;;;5065996;28;8844;-79
2024/02/01 13:08:53;;;;;;;;;4.00;3.00;;;;;;;;5067233;28;8918;-75
2024/02/01 13:11:25;;;;;;;;;8.00;8.00;;;;;;;;5065537;28;8852;-74
2024/02/01 13:13:55;;;;;;;;;5.00;5.00;;;;;;;;5067979;28;8942;-74
2024/02/01 13:16:23;;;;;;;;;4.25;3.00;;;;;;;;5065914;28;8871;-76
2024/02/01 13:18:50;;;;;;;;;4.75;4.75;;;;;;;;5070856;28;8886;-77
2024/02/01 13:21:17;;;;;;;;;3.25;3.25;;;;;;;;5063256;28;8966;-75
2024/02/01 13:23:46;;;;;;;;;3.50;3.25;;;;;;;;5068727;28;8990;-76
2024/02/01 13:26:14;;;;;;;;;6.00;6.00;;;;;;;;5068572;28;8833;-77
2024/02/01 13:28:42;;;;;;;;;4.50;2.00;;;;;;;;5060315;28;8878;-74
2024/02/01 13:31:12;;;;;;;;;2.00;2.00;;;;;;;;5068965;28;8789;-75
2024/02/01 13:33:39;;;;;;;;;2.25;2.25;;;;;;;;5065632;28;8856;-78
2024/02/01 13:36:08;;;;;;;;;2.25;2.25;;;;;;;;5070641;28;8955;-76
2024/02/01 13:38:36;;;;;;;;;2.50;2.50;;;;;;;;5053962;28;8880;-76
2024/02/01 13:41:03;;;;;;;;;2.00;2.00;;;;;;;;5071063;28;8926;-76
2024/02/01 13:43:33;;;;;;;;;0.50;0.00;;;;;;;;5071064;28;8852;-74
2024/02/01 13:46:00;;;;;;;;;2.00;2.00;;;;;;;;5072069;28;8929;-77
2024/02/01 13:48:27;;;;;;;;;1.00;1.00;;;;;;;;5069717;28;8891;-77
2024/02/01 13:50:57;;;;;;;;;3.00;1.50;;;;;;;;5056865;28;8861;-74
2024/02/01 13:53:24;;;;;;;;;2.00;2.00;;;;;;;;5069846;28;8853;-74
2024/02/01 13:55:52;;;;;;;;;1.25;1.00;;;;;;;;5060140;28;8966;-75
2024/02/01 13:58:19;;;;;;;;;1.50;1.50;;;;;;;;5063001;28;8830;-74
2024/02/01 14:00:48;;;;;;;;;3.00;2.00;;;;;;;;5068246;28;8947;-73
2024/02/01 14:03:15;;;;;;;;;1.75;1.75;;;;;;;;5062731;28;8979;-74
2024/02/01 14:05:42;;;;;;;;;1.75;1.75;;;;;;;;5063972;28;8845;-73
2024/02/01 14:08:09;;;;;;;;;2.25;2.25;;;;;;;;5056090;28;8981;-73
2024/02/01 14:10:37;;;;;;;;;2.00;1.00;;;;;;;;5067038;28;8880;-74
2024/02/01 14:13:07;;;;;;;;;3.25;1.25;;;;;;;;5066954;28;8843;-74
2024/02/01 14:15:36;;;;;;;;;1.25;1.00;;;;;;;;5066848;28;8875;-75
2024/02/01 14:18:05;;;;;;;;;0.75;0.75;;;;;;;;5067486;28;8848;-74
2024/02/01 14:20:32;;;;;;;;;2.00;0.50;;;;;;;;5062263;28;8986;-74
2024/02/01 14:23:00;;;;;;;;;1.00;1.00;;;;;;;;5068918;28;8846;-75
2024/02/01 14:25:28;;;;;;;;;0.00;0.00;;;;;;;;5065119;28;8852;-76
2024/02/01 14:27:55;;;;;;;;;1.00;1.00;;;;;;;;5059597;28;8855;-73
2024/02/01 14:30:22;;;;;;;;;1.00;1.00;;;;;;;;5061391;28;9507;-75
2024/02/01 14:32:49;;;;;;;;;2.00;0.00;;;;;;;;5065411;28;8829;-74
2024/02/01 14:35:18;;;;;;;;;1.00;1.00;;;;;;;;5059486;28;8868;-75
2024/02/01 14:37:45;;;;;;;;;2.50;2.00;;;;;;;;5063313;28;8892;-74
2024/02/01 14:40:13;;;;;;;;;2.25;1.00;;;;;;;;5058082;28;8892;-74
2024/02/01 14:42:43;;;;;;;;;1.50;1.50;;;;;;;;5066911;28;8866;-74
2024/02/01 14:45:13;;;;;;;;;4.00;2.75;;;;;;;;5067979;28;8864;-74
2024/02/01 14:47:41;;;;;;;;;4.50;4.50;;;;;;;;5064450;28;8849;-74
2024/02/01 14:50:08;;;;;;;;;3.00;3.00;;;;;;;;5067861;28;8880;-74
2024/02/01 14:52:37;;;;;;;;;8.00;4.75;;;;;;;;5061164;28;8869;-73
2024/02/01 14:55:09;;;;;;;;;6.00;6.00;;;;;;;;5067210;28;8918;-73
2024/02/01 14:57:36;;;;;;;;;6.00;4.50;;;;;;;;5065930;28;8852;-73
2024/02/01 15:00:07;;;;;;;;;5.50;5.50;;;;;;;;5066255;28;9708;-76
2024/02/01 15:02:34;;;;;;;;;9.50;7.50;;;;;;;;5067238;28;8855;-77
2024/02/01 15:05:01;;;;;;;;;7.50;7.50;;;;;;;;5066227;28;9366;-75
2024/02/01 15:07:28;;;;;;;;;2.00;2.00;;;;;;;;5067141;28;8872;-76
2024/02/01 15:09:57;;;;;;;;;4.50;3.00;;;;;;;;5066267;28;8828;-77
2024/02/01 15:12:25;;;;;;;;;5.00;3.75;;;;;;;;5063797;28;8856;-76
2024/02/01 15:14:52;;;;;;;;;5.00;3.50;;;;;;;;5064186;28;8852;-77
2024/02/01 15:17:19;;;;;;;;;3.00;3.00;;;;;;;;5066260;28;9678;-75
2024/02/01 15:19:48;;;;;;;;;7.00;5.50;;;;;;;;5056202;28;8976;-74
2024/02/01 15:22:15;;;;;;;;;6.67;6.67;;;;;;;;5059495;28;8880;-76
2024/02/01 15:24:42;;;;;;;;;9.00;7.25;;;;;;;;5067342;28;8957;-76
2024/02/01 15:27:11;;;;;;;;;8.25;5.50;;;;;;;;5068986;28;8922;-77